createdAt,value
2023-03-05T00:03:09.525Z,5.20
2023-03-05T00:07:18.140Z,5.00
2023-03-05T00:11:29.918Z,5.10
2023-03-05T00:15:43.181Z,5.10
2023-03-05T00:19:51.689Z,5.20
2023-03-05T00:24:02.375Z,5.10
2023-03-05T00:28:11.350Z,5.10
2023-03-05T00:32:19.933Z,5.00
2023-03-05T00:36:29.508Z,5.00
2023-03-05T00:40:39.891Z,5.20
2023-03-05T00:44:48.575Z,5.10
2023-03-05T00:48:57.783Z,5.00
2023-03-05T00:53:06.447Z,5.20
2023-03-05T00:57:15.173Z,5.10
2023-03-05T01:01:24.175Z,5.20
2023-03-05T01:05:32.964Z,5.10
2023-03-05T01:09:41.527Z,5.10
2023-03-05T01:13:50.137Z,5.10
2023-03-05T01:17:58.768Z,5.00
2023-03-05T01:22:07.317Z,5.00
2023-03-05T01:26:15.967Z,5.10
2023-03-05T01:30:24.686Z,5.10
2023-03-05T01:34:33.427Z,4.90
2023-03-05T01:38:44.000Z,5.00
2023-03-05T01:43:04.222Z,4.90
2023-03-05T01:47:12.823Z,4.90
2023-03-05T01:51:24.522Z,4.90
2023-03-05T01:55:36.953Z,4.90
2023-03-05T01:59:49.143Z,5.00
2023-03-05T02:04:19.488Z,4.90
2023-03-05T02:08:28.034Z,4.80
2023-03-05T02:12:36.643Z,4.80
2023-03-05T02:16:45.208Z,4.90
2023-03-05T02:20:59.841Z,4.90
2023-03-05T02:25:22.712Z,4.90
2023-03-05T02:29:32.503Z,4.80
2023-03-05T02:33:41.399Z,4.80
2023-03-05T02:37:50.127Z,4.80
2023-03-05T02:41:58.997Z,4.70
2023-03-05T02:50:23.587Z,4.70
2023-03-05T02:54:32.221Z,4.70
2023-03-05T02:58:40.924Z,4.80
2023-03-05T03:02:49.532Z,4.80
2023-03-05T03:06:58.202Z,4.70
2023-03-05T03:11:09.310Z,4.70
2023-03-05T03:15:18.837Z,4.80
2023-03-05T03:19:27.477Z,4.80
2023-03-05T03:23:36.400Z,4.60
2023-03-05T03:28:04.267Z,4.50
2023-03-05T03:32:12.926Z,4.70
2023-03-05T03:36:21.539Z,4.60
2023-03-05T03:40:30.272Z,4.60
2023-03-05T03:44:38.902Z,4.60
2023-03-05T03:48:50.721Z,4.60
2023-03-05T03:52:59.332Z,4.60
2023-03-05T03:57:07.864Z,4.70
2023-03-05T04:01:16.640Z,4.60
2023-03-05T04:05:25.226Z,4.70
2023-03-05T04:09:33.847Z,4.70
2023-03-05T04:13:42.681Z,4.60
2023-03-05T04:17:51.412Z,4.60
2023-03-05T04:22:00.261Z,4.60
2023-03-05T04:26:08.830Z,4.60
2023-03-05T04:30:17.504Z,4.60
2023-03-05T04:34:26.214Z,4.60
2023-03-05T04:38:34.775Z,4.70
2023-03-05T04:42:43.397Z,4.60
2023-03-05T04:46:52.835Z,4.70
2023-03-05T04:51:20.748Z,4.70
2023-03-05T04:55:29.334Z,4.60
2023-03-05T04:59:39.136Z,4.60
2023-03-05T05:03:47.720Z,4.60
2023-03-05T05:07:57.785Z,4.50
2023-03-05T05:12:06.858Z,4.60
2023-03-05T05:16:16.308Z,4.60
2023-03-05T05:20:44.355Z,4.60
2023-03-05T05:24:53.514Z,4.60
2023-03-05T05:29:02.125Z,4.50
2023-03-05T05:33:10.753Z,4.50
2023-03-05T05:37:19.487Z,4.50
2023-03-05T05:41:28.116Z,4.50
2023-03-05T05:45:40.889Z,4.60
2023-03-05T05:49:49.699Z,4.40
2023-03-05T05:53:58.314Z,4.50
2023-03-05T05:58:06.803Z,4.40
2023-03-05T06:02:15.433Z,4.40
2023-03-05T06:06:26.573Z,4.50
2023-03-05T06:10:35.280Z,4.50
2023-03-05T06:14:43.921Z,4.50
2023-03-05T06:18:53.340Z,4.50
2023-03-05T06:23:01.861Z,4.40
2023-03-05T06:27:10.510Z,4.50
2023-03-05T06:31:28.305Z,4.50
2023-03-05T06:35:40.027Z,4.50
2023-03-05T06:39:48.681Z,4.40
2023-03-05T06:43:57.674Z,4.40
2023-03-05T06:48:06.567Z,4.40
2023-03-05T06:52:15.182Z,4.30
2023-03-05T06:56:24.324Z,4.30
2023-03-05T07:00:33.182Z,4.40
2023-03-05T07:04:41.902Z,4.30
2023-03-05T07:08:50.825Z,4.40
2023-03-05T07:12:59.453Z,4.50
2023-03-05T07:17:08.744Z,4.50
2023-03-05T07:21:24.090Z,4.60
2023-03-05T07:25:34.166Z,4.50
2023-03-05T07:29:42.772Z,4.50
2023-03-05T07:33:52.140Z,4.50
2023-03-05T07:38:00.851Z,4.50
2023-03-05T07:42:09.478Z,4.50
2023-03-05T07:46:20.011Z,4.60
2023-03-05T07:50:28.587Z,4.70
2023-03-05T07:54:41.585Z,4.70
2023-03-05T07:58:53.720Z,4.80
2023-03-05T08:03:02.299Z,4.70
2023-03-05T08:07:10.877Z,4.70
2023-03-05T08:11:19.434Z,4.80
2023-03-05T08:15:28.133Z,4.90
2023-03-05T08:19:36.670Z,4.80
2023-03-05T08:23:45.294Z,4.70
2023-03-05T08:27:55.060Z,4.80
2023-03-05T08:32:03.814Z,4.70
2023-03-05T08:36:24.563Z,4.80
2023-03-05T08:40:33.730Z,5.00
2023-03-05T08:45:01.855Z,4.90
2023-03-05T08:49:11.569Z,4.90
2023-03-05T08:53:20.219Z,5.10
2023-03-05T08:57:29.032Z,5.20
2023-03-05T09:01:37.620Z,5.30
2023-03-05T09:05:46.930Z,5.20
2023-03-05T09:09:57.378Z,5.10
2023-03-05T09:14:06.709Z,5.20
2023-03-05T09:18:15.350Z,5.30
2023-03-05T09:22:23.978Z,5.30
2023-03-05T09:26:32.561Z,5.50
2023-03-05T09:30:41.195Z,5.40
2023-03-05T09:34:50.176Z,5.40
2023-03-05T09:38:59.171Z,5.40
2023-03-05T09:43:27.180Z,5.60
2023-03-05T09:47:50.456Z,5.70
2023-03-05T09:52:04.915Z,5.60
2023-03-05T09:56:16.889Z,5.80
2023-03-05T10:00:37.410Z,5.70
2023-03-05T10:05:00.614Z,5.70
2023-03-05T10:09:12.320Z,5.50
2023-03-05T10:13:29.855Z,5.30
2023-03-05T10:17:58.559Z,5.60
2023-03-05T10:22:19.366Z,5.60
2023-03-05T10:26:33.627Z,5.70
2023-03-05T10:31:00.457Z,5.70
2023-03-05T10:35:18.017Z,5.80
2023-03-05T10:39:50.625Z,6.00
2023-03-05T10:44:33.249Z,6.10
2023-03-05T10:48:47.689Z,6.20
2023-03-05T10:53:08.259Z,6.10
2023-03-05T10:57:22.795Z,6.20
2023-03-05T11:01:32.352Z,6.20
2023-03-05T11:05:49.453Z,6.40
2023-03-05T11:10:13.170Z,6.50
2023-03-05T11:14:28.972Z,6.90
2023-03-05T11:18:37.702Z,7.10
2023-03-05T11:23:06.722Z,7.10
2023-03-05T11:27:38.983Z,7.00
2023-03-05T11:31:47.554Z,7.10
2023-03-05T11:36:13.899Z,7.00
2023-03-05T11:40:25.517Z,7.10
2023-03-05T11:44:48.894Z,7.10
2023-03-05T11:48:59.160Z,7.10
2023-03-05T11:53:16.801Z,7.10
2023-03-05T11:57:26.815Z,7.30
2023-03-05T12:01:38.571Z,7.00
2023-03-05T12:05:50.445Z,6.90
2023-03-05T12:09:59.112Z,6.80
2023-03-05T12:14:25.769Z,6.80
2023-03-05T12:18:55.377Z,6.80
2023-03-05T12:23:04.416Z,6.60
2023-03-05T12:27:15.868Z,6.50
2023-03-05T12:31:39.518Z,6.60
2023-03-05T12:35:49.513Z,6.50
2023-03-05T12:40:20.709Z,6.50
2023-03-05T12:44:29.544Z,6.80
2023-03-05T12:48:44.175Z,6.80
2023-03-05T12:52:53.464Z,6.90
2023-03-05T12:57:22.832Z,7.00
2023-03-05T13:01:34.444Z,7.00
2023-03-05T13:05:51.915Z,7.00
2023-03-05T13:10:01.136Z,6.90
2023-03-05T13:14:40.953Z,6.90
2023-03-05T13:18:51.087Z,6.80
2023-03-05T13:23:19.674Z,6.90
2023-03-05T13:27:30.656Z,7.00
2023-03-05T13:31:54.329Z,6.90
2023-03-05T13:36:03.474Z,6.90
2023-03-05T13:40:29.919Z,7.00
2023-03-05T13:44:38.539Z,6.90
2023-03-05T13:48:47.096Z,7.00
2023-03-05T13:52:58.354Z,6.90
2023-03-05T13:57:08.962Z,7.00
2023-03-05T14:01:26.390Z,6.90
2023-03-05T14:05:34.894Z,7.10
2023-03-05T14:09:53.414Z,7.00
2023-03-05T14:14:22.704Z,6.90
2023-03-05T14:18:31.503Z,6.90
2023-03-05T14:22:43.628Z,7.10
2023-03-05T14:26:56.515Z,7.00
2023-03-05T14:31:05.198Z,7.20
2023-03-05T14:35:22.571Z,7.20
2023-03-05T14:39:36.930Z,7.20
2023-03-05T14:48:04.121Z,7.20
2023-03-05T14:52:21.333Z,7.10
2023-03-05T14:56:30.521Z,7.30
2023-03-05T15:00:39.155Z,7.30
2023-03-05T15:04:48.087Z,7.40
2023-03-05T15:08:56.715Z,7.20
2023-03-05T15:13:05.859Z,7.10
2023-03-05T15:17:17.698Z,7.10
2023-03-05T15:21:26.385Z,7.10
2023-03-05T15:25:35.332Z,7.10
2023-03-05T15:29:43.926Z,7.30
2023-03-05T15:33:52.489Z,7.10
2023-03-05T15:38:01.220Z,7.10
2023-03-05T15:42:09.841Z,7.00
2023-03-05T15:46:18.373Z,7.10
2023-03-05T15:50:46.356Z,7.10
2023-03-05T15:54:54.971Z,7.10
2023-03-05T15:59:03.719Z,7.20
2023-03-05T16:03:12.485Z,7.30
2023-03-05T16:07:23.644Z,7.00
2023-03-05T16:11:34.406Z,7.10
2023-03-05T16:15:43.827Z,7.10
2023-03-05T16:19:55.311Z,6.90
2023-03-05T16:24:04.372Z,6.90
2023-03-05T16:28:12.945Z,6.70
2023-03-05T16:32:21.544Z,6.70
2023-03-05T16:36:31.572Z,6.60
2023-03-05T16:41:05.955Z,6.60
2023-03-05T16:44:51.782Z,6.60
2023-03-05T16:49:00.464Z,6.60
2023-03-05T16:53:09.094Z,6.50
2023-03-05T16:57:18.130Z,6.50
2023-03-05T17:01:28.395Z,6.50
2023-03-05T17:05:38.556Z,6.50
2023-03-05T17:09:48.243Z,6.40
2023-03-05T17:13:56.841Z,6.40
2023-03-05T17:18:06.190Z,6.40
2023-03-05T17:22:16.252Z,6.40
2023-03-05T17:26:24.879Z,6.40
2023-03-05T17:30:35.144Z,6.40
2023-03-05T17:34:44.406Z,6.40
2023-03-05T17:38:53.756Z,6.40
2023-03-05T17:43:02.366Z,6.40
2023-03-05T17:47:10.888Z,6.30
2023-03-05T17:51:19.519Z,6.30
2023-03-05T17:55:28.790Z,6.30
2023-03-05T17:59:37.388Z,6.30
2023-03-05T18:03:46.017Z,6.20
2023-03-05T18:07:55.531Z,6.20
2023-03-05T18:12:04.195Z,6.20
2023-03-05T18:16:14.718Z,6.20
2023-03-05T18:20:42.864Z,6.20
2023-03-05T18:24:51.422Z,6.10
2023-03-05T18:29:00.111Z,6.10
2023-03-05T18:33:10.050Z,6.10
2023-03-05T18:37:18.714Z,6.00
2023-03-05T18:41:28.375Z,6.00
2023-03-05T18:45:37.094Z,6.00
2023-03-05T18:49:45.709Z,6.00
2023-03-05T18:53:55.102Z,5.90
2023-03-05T18:58:05.117Z,5.90
2023-03-05T19:02:34.453Z,5.90
2023-03-05T19:06:43.470Z,5.90
2023-03-05T19:10:51.995Z,5.80
2023-03-05T19:15:01.596Z,5.70
2023-03-05T19:19:16.389Z,5.80
2023-03-05T19:23:25.502Z,5.80
2023-03-05T19:27:34.097Z,5.70
2023-03-05T19:31:42.841Z,5.70
2023-03-05T19:35:51.518Z,5.70
2023-03-05T19:40:00.164Z,5.70
2023-03-05T19:44:08.921Z,5.70
2023-03-05T19:48:17.464Z,5.60
2023-03-05T19:52:26.686Z,5.60
2023-03-05T19:56:36.769Z,5.60
2023-03-05T20:00:45.404Z,5.60
2023-03-05T20:04:56.134Z,5.50
2023-03-05T20:09:06.436Z,5.50
2023-03-05T20:13:14.985Z,5.50
2023-03-05T20:17:23.674Z,5.60
2023-03-05T20:21:35.048Z,5.50
2023-03-05T20:25:43.599Z,5.60
2023-03-05T20:29:52.139Z,5.50
2023-03-05T20:34:00.688Z,5.50
2023-03-05T20:38:21.686Z,5.50
2023-03-05T20:42:30.298Z,5.40
2023-03-05T20:46:42.694Z,5.40
2023-03-05T20:50:52.169Z,5.20
2023-03-05T20:55:01.924Z,5.20
2023-03-05T20:59:11.135Z,5.20
2023-03-05T21:03:19.695Z,5.20
2023-03-05T21:07:29.765Z,5.20
2023-03-05T21:11:38.285Z,5.10
2023-03-05T21:15:46.905Z,5.20
2023-03-05T21:19:55.435Z,5.20
2023-03-05T21:24:04.110Z,5.10
2023-03-05T21:28:18.536Z,5.10
2023-03-05T21:32:27.642Z,5.10
2023-03-05T21:36:36.230Z,5.00
2023-03-05T21:40:48.049Z,5.00
2023-03-05T21:44:56.637Z,5.00
2023-03-05T21:49:05.357Z,5.00
2023-03-05T21:53:15.551Z,5.00
2023-03-05T21:57:25.238Z,5.00
2023-03-05T22:01:33.970Z,5.00
2023-03-05T22:05:44.472Z,5.00
2023-03-05T22:09:57.092Z,5.00
2023-03-05T22:14:05.624Z,5.00
2023-03-05T22:18:16.967Z,5.00
2023-03-05T22:22:25.640Z,5.00
2023-03-05T22:26:39.898Z,4.90
2023-03-05T22:30:48.571Z,4.90
2023-03-05T22:34:57.584Z,4.80
2023-03-05T22:39:06.612Z,4.80
2023-03-05T22:43:15.661Z,4.80
2023-03-05T22:47:24.915Z,4.70
2023-03-05T22:51:33.461Z,4.70
2023-03-05T22:55:43.063Z,4.70
2023-03-05T22:59:51.691Z,4.70
2023-03-05T23:04:01.878Z,4.70
2023-03-05T23:08:10.387Z,4.70
2023-03-05T23:12:19.014Z,4.70
2023-03-05T23:16:27.592Z,4.70
2023-03-05T23:20:37.829Z,4.70
2023-03-05T23:24:46.370Z,4.60
2023-03-05T23:28:54.972Z,4.60
2023-03-05T23:33:15.892Z,4.60
2023-03-05T23:37:24.516Z,4.60
2023-03-05T23:41:33.244Z,4.60
2023-03-05T23:45:43.325Z,4.60
2023-03-05T23:49:53.575Z,4.70
2023-03-05T23:54:02.098Z,4.60
2023-03-05T23:58:11.241Z,4.70
